Time;durP1;ratioP1;P1;durP2;ratioP2;P2;SDS_P1;SDS_P2;PMS_P1;PMS_P2;Temp;Humidity;BMP_temperature;BMP_pressure;BME280_temperature;BME280_humidity;BME280_pressure;Samples;Min_cycle;Max_cycle;Signal;HPM_P1;HPM_P2
2022/04/08 00:01:35;;;;;;;3.93;1.97;;;;;;;;;;5055464;28;20628;-62
2022/04/08 00:04:02;;;;;;;5.30;1.83;;;;;;;;;;5069921;28;20184;-60
2022/04/08 00:06:28;;;;;;;1.50;1.40;;;;;;;;;;5050841;28;20343;-60
2022/04/08 00:08:55;;;;;;;2.83;2.00;;;;;;;;;;5047036;28;20585;-62
2022/04/08 00:11:21;;;;;;;4.30;1.57;;;;;;;;;;5047088;28;20678;-63
2022/04/08 00:13:52;;;;;;;4.63;1.77;;;;;;;;;;5055115;28;20184;-63
2022/04/08 00:16:21;;;;;;;3.40;1.77;;;;;;;;;;5045007;28;20582;-55
2022/04/08 00:18:48;;;;;;;3.63;2.10;;;;;;;;;;5086719;28;20251;-60
2022/04/08 00:21:15;;;;;;;6.40;2.10;;;;;;;;;;5042364;28;20580;-59
2022/04/08 00:23:42;;;;;;;2.70;1.43;;;;;;;;;;5051452;28;20176;-56
2022/04/08 00:26:08;;;;;;;5.03;1.77;;;;;;;;;;5069566;28;20172;-59
2022/04/08 00:28:34;;;;;;;4.70;1.60;;;;;;;;;;5072442;28;20658;-59
2022/04/08 00:31:02;;;;;;;3.40;1.70;;;;;;;;;;5057467;28;20180;-61
2022/04/08 00:33:30;;;;;;;3.37;1.40;;;;;;;;;;5047665;28;20695;-60
2022/04/08 00:35:56;;;;;;;2.33;1.63;;;;;;;;;;5061994;28;20618;-61
2022/04/08 00:38:23;;;;;;;3.80;1.70;;;;;;;;;;5065652;28;20184;-61
2022/04/08 00:40:49;;;;;;;4.20;1.77;;;;;;;;;;5049597;28;20230;-57
2022/04/08 00:43:19;;;;;;;3.40;1.87;;;;;;;;;;5056086;28;20686;-60
2022/04/08 00:45:46;;;;;;;3.07;1.90;;;;;;;;;;5047348;28;20201;-60
2022/04/08 00:48:12;;;;;;;4.97;1.80;;;;;;;;;;5070504;28;20210;-61
2022/04/08 00:50:41;;;;;;;5.27;2.00;;;;;;;;;;5064268;28;20191;-60
2022/04/08 00:53:07;;;;;;;3.63;1.83;;;;;;;;;;5065318;28;20234;-62
2022/04/08 00:55:35;;;;;;;5.03;1.83;;;;;;;;;;5062501;28;20185;-60
2022/04/08 00:58:02;;;;;;;3.37;1.67;;;;;;;;;;5050682;28;20235;-61
2022/04/08 01:00:31;;;;;;;3.57;1.80;;;;;;;;;;5043258;28;20232;-60
2022/04/08 01:02:58;;;;;;;4.23;1.93;;;;;;;;;;5064187;28;20278;-60
2022/04/08 01:05:24;;;;;;;4.93;1.90;;;;;;;;;;5063456;28;20549;-61
2022/04/08 01:07:50;;;;;;;2.67;1.67;;;;;;;;;;5063129;28;20212;-57
2022/04/08 01:10:20;;;;;;;2.73;1.80;;;;;;;;;;5072615;28;20714;-60
2022/04/08 01:12:49;;;;;;;5.80;1.80;;;;;;;;;;5050517;28;20224;-59
2022/04/08 01:15:15;;;;;;;4.50;1.97;;;;;;;;;;5045639;28;20184;-59
2022/04/08 01:17:41;;;;;;;3.00;1.83;;;;;;;;;;5066510;28;20222;-58
2022/04/08 01:20:09;;;;;;;4.07;2.17;;;;;;;;;;5038323;28;20660;-60
2022/04/08 01:22:35;;;;;;;4.43;1.90;;;;;;;;;;5048848;28;20180;-59
2022/04/08 01:25:05;;;;;;;6.10;2.60;;;;;;;;;;5038699;28;20239;-62
2022/04/08 01:27:32;;;;;;;7.40;2.90;;;;;;;;;;5043650;28;20176;-61
2022/04/08 01:29:59;;;;;;;4.03;1.77;;;;;;;;;;5046943;28;20191;-62
2022/04/08 01:32:25;;;;;;;4.63;2.40;;;;;;;;;;5041754;28;20907;-60
2022/04/08 01:34:53;;;;;;;4.73;1.70;;;;;;;;;;5060558;28;20225;-62
2022/04/08 01:37:20;;;;;;;4.73;2.17;;;;;;;;;;5068150;28;20267;-60
2022/04/08 01:39:46;;;;;;;7.77;1.60;;;;;;;;;;5041891;28;20209;-61
2022/04/08 01:42:13;;;;;;;7.00;2.80;;;;;;;;;;5041878;28;20180;-61
2022/04/08 01:44:40;;;;;;;4.77;2.43;;;;;;;;;;5053893;28;20661;-59
2022/04/08 01:47:06;;;;;;;3.77;1.97;;;;;;;;;;5047263;28;20190;-62
2022/04/08 01:49:33;;;;;;;8.30;2.80;;;;;;;;;;5038858;28;20208;-60
2022/04/08 01:51:59;;;;;;;4.77;2.13;;;;;;;;;;5044400;28;20189;-61
2022/04/08 01:54:26;;;;;;;5.37;2.20;;;;;;;;;;5056159;28;20742;-60
2022/04/08 01:56:53;;;;;;;3.90;1.73;;;;;;;;;;5046891;28;20198;-61
2022/04/08 01:59:19;;;;;;;5.30;2.03;;;;;;;;;;5064689;28;20196;-61
2022/04/08 02:01:45;;;;;;;4.93;2.17;;;;;;;;;;5044543;28;20669;-58
2022/04/08 02:04:12;;;;;;;4.40;2.27;;;;;;;;;;5062458;28;20177;-62
2022/04/08 02:06:40;;;;;;;3.47;1.87;;;;;;;;;;5046466;28;20686;-61
2022/04/08 02:09:08;;;;;;;5.70;2.60;;;;;;;;;;5044320;28;20173;-61
2022/04/08 02:11:35;;;;;;;5.10;2.20;;;;;;;;;;5045758;28;20216;-61
2022/04/08 02:14:01;;;;;;;5.73;2.00;;;;;;;;;;5069802;28;20217;-61
2022/04/08 02:16:27;;;;;;;4.53;2.37;;;;;;;;;;5047805;28;20177;-61
2022/04/08 02:18:53;;;;;;;7.90;2.30;;;;;;;;;;5060811;28;20167;-62
2022/04/08 02:21:20;;;;;;;3.47;2.13;;;;;;;;;;5049893;28;20719;-62
2022/04/08 02:23:47;;;;;;;4.77;2.13;;;;;;;;;;5050810;28;20754;-60
2022/04/08 02:26:14;;;;;;;5.93;1.93;;;;;;;;;;5047274;28;20259;-61
2022/04/08 02:28:41;;;;;;;5.23;2.20;;;;;;;;;;5064826;28;20180;-62
2022/04/08 02:31:07;;;;;;;5.37;2.10;;;;;;;;;;5063979;28;20738;-62
2022/04/08 02:33:33;;;;;;;7.57;2.60;;;;;;;;;;5056122;28;20188;-61
2022/04/08 02:35:59;;;;;;;5.43;2.00;;;;;;;;;;5045830;28;20188;-61
2022/04/08 02:38:26;;;;;;;5.37;1.93;;;;;;;;;;5058894;28;20207;-61
2022/04/08 02:40:52;;;;;;;4.53;2.13;;;;;;;;;;5041579;28;20208;-62
2022/04/08 02:43:19;;;;;;;6.00;2.00;;;;;;;;;;5068157;28;20607;-60
2022/04/08 02:45:45;;;;;;;7.67;2.40;;;;;;;;;;5039102;28;20570;-60
2022/04/08 02:48:13;;;;;;;10.40;1.77;;;;;;;;;;5046568;28;20181;-59
2022/04/08 02:50:41;;;;;;;6.67;2.23;;;;;;;;;;5043971;28;20181;-62
2022/04/08 02:53:07;;;;;;;4.67;1.97;;;;;;;;;;5042259;28;20234;-61
2022/04/08 02:55:35;;;;;;;7.00;2.33;;;;;;;;;;5056001;28;20185;-56
2022/04/08 02:58:01;;;;;;;5.40;2.67;;;;;;;;;;5074677;28;20200;-59
2022/04/08 03:00:28;;;;;;;4.93;1.90;;;;;;;;;;5063664;28;20200;-60
2022/04/08 03:02:54;;;;;;;4.23;1.80;;;;;;;;;;5047395;28;20242;-62
2022/04/08 03:05:20;;;;;;;4.30;2.23;;;;;;;;;;5056045;28;20183;-57
2022/04/08 03:07:47;;;;;;;6.60;2.20;;;;;;;;;;5066324;28;21171;-57
2022/04/08 03:10:13;;;;;;;4.43;1.83;;;;;;;;;;5048299;28;20178;-63
2022/04/08 03:12:39;;;;;;;6.60;2.30;;;;;;;;;;5084036;28;20231;-60
2022/04/08 03:15:05;;;;;;;6.33;2.30;;;;;;;;;;5080781;28;20666;-62
2022/04/08 03:17:32;;;;;;;6.23;2.60;;;;;;;;;;5069767;28;20188;-57
2022/04/08 03:19:58;;;;;;;3.47;1.90;;;;;;;;;;5048051;28;20203;-59
2022/04/08 03:22:25;;;;;;;6.10;1.93;;;;;;;;;;5042601;28;20203;-61
2022/04/08 03:24:51;;;;;;;4.53;1.80;;;;;;;;;;5062979;28;20176;-60
2022/04/08 03:27:18;;;;;;;5.80;2.10;;;;;;;;;;5066298;28;20184;-60
2022/04/08 03:29:44;;;;;;;4.83;1.90;;;;;;;;;;5069317;28;20208;-58
2022/04/08 03:32:11;;;;;;;6.13;2.60;;;;;;;;;;5045946;28;20192;-61
2022/04/08 03:34:38;;;;;;;9.30;2.00;;;;;;;;;;5032950;28;20189;-59
2022/04/08 03:37:05;;;;;;;3.00;1.90;;;;;;;;;;5062655;28;20207;-60
2022/04/08 03:39:31;;;;;;;3.07;1.60;;;;;;;;;;5051586;28;20192;-60
2022/04/08 03:41:57;;;;;;;4.03;1.57;;;;;;;;;;5049389;28;20180;-61
2022/04/08 03:44:24;;;;;;;3.90;1.63;;;;;;;;;;5062515;28;20543;-59
2022/04/08 03:46:50;;;;;;;3.57;1.63;;;;;;;;;;5070005;28;20179;-62
2022/04/08 03:49:17;;;;;;;3.67;1.60;;;;;;;;;;5066188;28;20192;-61
2022/04/08 03:51:44;;;;;;;6.13;2.93;;;;;;;;;;5050449;28;20294;-61
2022/04/08 03:54:11;;;;;;;5.00;2.03;;;;;;;;;;5066498;28;20185;-62
2022/04/08 03:56:37;;;;;;;4.20;2.00;;;;;;;;;;5063517;28;20914;-60
2022/04/08 03:59:06;;;;;;;5.13;1.70;;;;;;;;;;5036167;28;20245;-61
2022/04/08 04:01:33;;;;;;;3.40;2.10;;;;;;;;;;5056044;28;20179;-63
2022/04/08 04:03:59;;;;;;;6.00;2.30;;;;;;;;;;5074704;28;20187;-62
2022/04/08 04:06:25;;;;;;;4.97;2.23;;;;;;;;;;5058849;28;20169;-61
2022/04/08 04:08:52;;;;;;;5.47;2.07;;;;;;;;;;5055537;28;20542;-62
2022/04/08 04:11:18;;;;;;;3.30;2.00;;;;;;;;;;5080618;28;21035;-62
2022/04/08 04:13:45;;;;;;;4.27;2.20;;;;;;;;;;5067330;28;20290;-62
2022/04/08 04:16:11;;;;;;;5.53;2.33;;;;;;;;;;5068525;28;20216;-62
2022/04/08 04:18:37;;;;;;;4.17;2.10;;;;;;;;;;5052913;28;20172;-62
2022/04/08 04:21:05;;;;;;;5.00;2.20;;;;;;;;;;5038903;28;20218;-63
2022/04/08 04:23:34;;;;;;;5.00;2.13;;;;;;;;;;5068657;28;20180;-62
2022/04/08 04:26:01;;;;;;;5.40;2.33;;;;;;;;;;5069079;28;20181;-63
2022/04/08 04:28:30;;;;;;;4.23;2.27;;;;;;;;;;5064327;28;20214;-62
2022/04/08 04:30:59;;;;;;;3.53;2.03;;;;;;;;;;5044860;28;20720;-60
2022/04/08 04:33:26;;;;;;;4.10;2.80;;;;;;;;;;5035140;28;20216;-62
2022/04/08 04:35:52;;;;;;;4.07;2.03;;;;;;;;;;5046350;28;20185;-63
2022/04/08 04:38:18;;;;;;;4.03;1.77;;;;;;;;;;5069122;28;20543;-62
2022/04/08 04:40:44;;;;;;;3.93;1.73;;;;;;;;;;5042928;28;20240;-62
2022/04/08 04:43:11;;;;;;;4.40;2.03;;;;;;;;;;5050087;28;20182;-63
2022/04/08 04:45:39;;;;;;;4.47;2.33;;;;;;;;;;5058409;28;20569;-63
2022/04/08 04:48:10;;;;;;;4.30;1.73;;;;;;;;;;5036739;28;20184;-63
2022/04/08 04:50:36;;;;;;;3.53;1.83;;;;;;;;;;5050819;28;20275;-61
2022/04/08 04:53:03;;;;;;;2.50;1.70;;;;;;;;;;5060604;28;20188;-63
2022/04/08 04:55:29;;;;;;;8.10;2.00;;;;;;;;;;5043712;28;20663;-63
2022/04/08 04:57:56;;;;;;;3.77;2.03;;;;;;;;;;5079085;28;20192;-63
2022/04/08 05:00:23;;;;;;;7.40;2.87;;;;;;;;;;5068632;28;20216;-57
2022/04/08 05:02:49;;;;;;;4.60;2.27;;;;;;;;;;5068418;28;20256;-60
2022/04/08 05:05:16;;;;;;;7.77;2.70;;;;;;;;;;5061475;28;20187;-63
2022/04/08 05:07:42;;;;;;;5.50;2.50;;;;;;;;;;5078431;28;20183;-63
2022/04/08 05:10:09;;;;;;;3.33;2.00;;;;;;;;;;5067629;28;20184;-62
2022/04/08 05:12:36;;;;;;;4.50;2.37;;;;;;;;;;5069073;28;20259;-64
2022/04/08 05:15:03;;;;;;;7.13;2.37;;;;;;;;;;5060469;28;20651;-63
2022/04/08 05:17:29;;;;;;;4.13;2.07;;;;;;;;;;5030664;28;20270;-61
2022/04/08 05:19:55;;;;;;;5.80;2.43;;;;;;;;;;5056629;28;20201;-58
2022/04/08 05:22:22;;;;;;;6.97;2.60;;;;;;;;;;5050802;28;20176;-63
2022/04/08 05:24:48;;;;;;;6.63;3.03;;;;;;;;;;5045978;28;20181;-62
2022/04/08 05:27:14;;;;;;;5.30;2.30;;;;;;;;;;5069061;28;20168;-61
2022/04/08 05:29:40;;;;;;;7.47;3.03;;;;;;;;;;5052103;28;20204;-63
2022/04/08 05:32:07;;;;;;;7.67;3.27;;;;;;;;;;5068987;28;20173;-63
2022/04/08 05:34:33;;;;;;;6.10;3.00;;;;;;;;;;5066753;28;20287;-64
2022/04/08 05:36:59;;;;;;;7.13;2.90;;;;;;;;;;5069169;28;20680;-64
2022/04/08 05:39:26;;;;;;;4.23;2.50;;;;;;;;;;5062159;28;20192;-62
2022/04/08 05:41:52;;;;;;;6.60;3.03;;;;;;;;;;5050832;28;20381;-63
2022/04/08 05:44:18;;;;;;;5.27;3.10;;;;;;;;;;5071654;28;20636;-59
2022/04/08 05:46:45;;;;;;;6.23;2.93;;;;;;;;;;5068990;28;20222;-60
2022/04/08 05:49:11;;;;;;;4.73;2.87;;;;;;;;;;5058489;28;20182;-63
2022/04/08 05:51:37;;;;;;;6.67;3.10;;;;;;;;;;5050000;28;20280;-63
2022/04/08 05:54:03;;;;;;;5.63;2.87;;;;;;;;;;5050519;28;20247;-62
2022/04/08 05:56:29;;;;;;;5.33;3.00;;;;;;;;;;5068245;28;20176;-61
2022/04/08 05:58:57;;;;;;;3.87;3.10;;;;;;;;;;5049974;28;20204;-59
2022/04/08 06:01:24;;;;;;;5.83;3.43;;;;;;;;;;5050720;28;20208;-61
2022/04/08 06:03:50;;;;;;;3.83;3.10;;;;;;;;;;5049089;28;20542;-61
2022/04/08 06:06:16;;;;;;;4.50;2.67;;;;;;;;;;5068395;28;20176;-62
2022/04/08 06:08:42;;;;;;;4.50;3.40;;;;;;;;;;5050238;28;20185;-61
2022/04/08 06:11:08;;;;;;;12.67;4.50;;;;;;;;;;5050551;28;20271;-60
2022/04/08 06:13:35;;;;;;;4.80;2.73;;;;;;;;;;5068428;28;20417;-61
2022/04/08 06:16:01;;;;;;;5.27;3.27;;;;;;;;;;5031421;28;20216;-62
2022/04/08 06:18:27;;;;;;;3.20;2.67;;;;;;;;;;5047700;28;20192;-61
2022/04/08 06:20:53;;;;;;;5.67;3.33;;;;;;;;;;5066284;28;20667;-60
2022/04/08 06:23:19;;;;;;;3.33;2.90;;;;;;;;;;5049901;28;20271;-61
2022/04/08 06:25:45;;;;;;;5.87;3.00;;;;;;;;;;5068174;28;20667;-58
2022/04/08 06:28:11;;;;;;;3.63;2.97;;;;;;;;;;5068545;28;20508;-59
2022/04/08 06:30:42;;;;;;;3.90;3.00;;;;;;;;;;5055920;28;20637;-60
2022/04/08 06:33:09;;;;;;;5.70;3.83;;;;;;;;;;5051167;28;20165;-61
2022/04/08 06:35:35;;;;;;;5.20;3.23;;;;;;;;;;5048868;28;20203;-61
2022/04/08 06:38:02;;;;;;;5.37;3.50;;;;;;;;;;5053593;28;20177;-60
2022/04/08 06:40:29;;;;;;;4.27;3.30;;;;;;;;;;5053821;28;20670;-61
2022/04/08 06:42:59;;;;;;;6.57;3.50;;;;;;;;;;5072214;28;20550;-60
2022/04/08 06:45:26;;;;;;;5.23;3.63;;;;;;;;;;5053576;28;20184;-61
2022/04/08 06:47:53;;;;;;;5.33;3.53;;;;;;;;;;5071261;28;20172;-62
2022/04/08 06:50:19;;;;;;;4.87;3.87;;;;;;;;;;5056782;28;20234;-61
2022/04/08 06:52:46;;;;;;;4.30;3.33;;;;;;;;;;5053353;28;20188;-60
2022/04/08 06:55:16;;;;;;;4.27;3.67;;;;;;;;;;5053350;28;20185;-61
2022/04/08 06:57:42;;;;;;;6.97;3.70;;;;;;;;;;5071547;28;20188;-59
2022/04/08 07:00:10;;;;;;;3.63;3.27;;;;;;;;;;5067154;28;20251;-59
2022/04/08 07:02:36;;;;;;;4.57;3.87;;;;;;;;;;5049164;28;20181;-59
2022/04/08 07:05:03;;;;;;;6.00;3.70;;;;;;;;;;5072430;28;20673;-60
2022/04/08 07:07:32;;;;;;;5.13;3.80;;;;;;;;;;5078524;28;20168;-60
2022/04/08 07:09:59;;;;;;;5.53;4.53;;;;;;;;;;5072703;28;20631;-61
2022/04/08 07:12:28;;;;;;;5.40;3.90;;;;;;;;;;5076231;28;20215;-61
2022/04/08 07:14:54;;;;;;;5.10;4.60;;;;;;;;;;5060905;28;20185;-60
2022/04/08 07:17:30;;;;;;;5.50;3.97;;;;;;;;;;5051627;28;20595;-61
2022/04/08 07:19:57;;;;;;;5.50;4.53;;;;;;;;;;5059766;28;20303;-60
2022/04/08 07:22:23;;;;;;;6.03;4.30;;;;;;;;;;5052864;28;20193;-60
2022/04/08 07:24:50;;;;;;;6.70;4.37;;;;;;;;;;5065363;28;20690;-62
2022/04/08 07:27:17;;;;;;;4.90;4.27;;;;;;;;;;5071514;28;20173;-61
2022/04/08 07:29:43;;;;;;;5.33;4.47;;;;;;;;;;5050953;28;20577;-61
2022/04/08 07:32:09;;;;;;;5.67;4.33;;;;;;;;;;5071619;28;20541;-62
2022/04/08 07:34:39;;;;;;;7.47;4.97;;;;;;;;;;5069012;28;20180;-60
2022/04/08 07:37:05;;;;;;;4.83;4.37;;;;;;;;;;5070209;28;20181;-60
2022/04/08 07:39:31;;;;;;;6.67;5.20;;;;;;;;;;5069725;28;20682;-61
2022/04/08 07:41:58;;;;;;;6.33;5.20;;;;;;;;;;5052547;28;20169;-60
2022/04/08 07:44:25;;;;;;;5.93;4.70;;;;;;;;;;5052020;28;20188;-59
2022/04/08 07:46:57;;;;;;;6.30;4.93;;;;;;;;;;5036352;28;20211;-58
2022/04/08 07:49:23;;;;;;;6.83;5.10;;;;;;;;;;5050876;28;20185;-61
2022/04/08 07:51:49;;;;;;;5.30;4.53;;;;;;;;;;5069121;28;20211;-61
2022/04/08 07:54:15;;;;;;;5.53;4.80;;;;;;;;;;5065840;28;20518;-62
2022/04/08 07:56:42;;;;;;;5.27;4.40;;;;;;;;;;5050384;28;20197;-61
2022/04/08 07:59:08;;;;;;;7.87;4.67;;;;;;;;;;5069109;28;20168;-62
2022/04/08 08:01:34;;;;;;;7.77;4.60;;;;;;;;;;5070574;28;20196;-61
2022/04/08 08:04:01;;;;;;;5.67;5.13;;;;;;;;;;5050464;28;20492;-61
2022/04/08 08:06:27;;;;;;;7.37;4.23;;;;;;;;;;5070507;28;20718;-62
2022/04/08 08:08:58;;;;;;;6.40;5.47;;;;;;;;;;5069270;28;20173;-62
2022/04/08 08:11:24;;;;;;;5.80;4.80;;;;;;;;;;5051842;28;20180;-58
2022/04/08 08:13:50;;;;;;;5.93;4.80;;;;;;;;;;5069684;28;20214;-62
2022/04/08 08:16:19;;;;;;;5.87;4.43;;;;;;;;;;5052056;28;20545;-62
2022/04/08 08:18:45;;;;;;;6.57;4.93;;;;;;;;;;5050293;28;20229;-59
2022/04/08 08:21:12;;;;;;;5.87;3.83;;;;;;;;;;5060900;28;21010;-61
2022/04/08 08:23:38;;;;;;;4.80;4.30;;;;;;;;;;5073036;28;20226;-61
2022/04/08 08:26:05;;;;;;;5.43;4.27;;;;;;;;;;5069523;28;20577;-60
2022/04/08 08:28:31;;;;;;;5.70;4.07;;;;;;;;;;5069802;28;20185;-61
2022/04/08 08:30:57;;;;;;;7.03;4.20;;;;;;;;;;5051330;28;20196;-61
2022/04/08 08:33:26;;;;;;;4.83;4.43;;;;;;;;;;5038869;28;20203;-60
2022/04/08 08:35:53;;;;;;;5.17;4.10;;;;;;;;;;5049836;28;20192;-60
2022/04/08 08:38:19;;;;;;;4.60;3.40;;;;;;;;;;5069238;28;20253;-61
2022/04/08 08:40:45;;;;;;;6.33;4.37;;;;;;;;;;5069002;28;20200;-61
2022/04/08 08:43:17;;;;;;;4.33;3.80;;;;;;;;;;5068759;28;20184;-61
2022/04/08 08:45:44;;;;;;;3.93;3.33;;;;;;;;;;5068948;28;20616;-59
2022/04/08 08:48:10;;;;;;;5.77;4.00;;;;;;;;;;5050940;28;20651;-61
2022/04/08 08:50:39;;;;;;;4.70;3.40;;;;;;;;;;5068505;28;20267;-61
2022/04/08 08:53:05;;;;;;;4.50;3.90;;;;;;;;;;5065741;28;20208;-60
2022/04/08 08:55:31;;;;;;;3.33;2.83;;;;;;;;;;5068129;28;20749;-61
2022/04/08 08:57:57;;;;;;;6.80;3.30;;;;;;;;;;5069432;28;20204;-62
2022/04/08 09:00:24;;;;;;;5.97;3.80;;;;;;;;;;5068215;28;20281;-61
2022/04/08 09:02:50;;;;;;;7.07;3.33;;;;;;;;;;5068778;28;20694;-59
2022/04/08 09:05:17;;;;;;;5.03;3.50;;;;;;;;;;5067187;28;20549;-60
2022/04/08 09:07:52;;;;;;;4.83;3.20;;;;;;;;;;5068869;28;20659;-60
2022/04/08 09:10:24;;;;;;;4.63;3.33;;;;;;;;;;5068143;28;20360;-59
2022/04/08 09:12:54;;;;;;;6.93;3.73;;;;;;;;;;5066998;28;20304;-60
2022/04/08 09:15:20;;;;;;;4.80;3.00;;;;;;;;;;5049642;28;20179;-60
2022/04/08 09:17:46;;;;;;;3.90;3.33;;;;;;;;;;5067914;28;20628;-61
2022/04/08 09:20:12;;;;;;;4.80;3.03;;;;;;;;;;5049358;28;20212;-61
2022/04/08 09:22:38;;;;;;;5.07;2.83;;;;;;;;;;5068798;28;20172;-61
2022/04/08 09:25:09;;;;;;;4.93;3.33;;;;;;;;;;5067211;28;20176;-61
2022/04/08 09:27:36;;;;;;;4.80;2.97;;;;;;;;;;5068746;28;20181;-60
2022/04/08 09:30:02;;;;;;;4.00;3.10;;;;;;;;;;5067339;28;20209;-59
2022/04/08 09:32:28;;;;;;;9.77;3.40;;;;;;;;;;5068645;28;20180;-56
2022/04/08 09:34:54;;;;;;;6.63;3.87;;;;;;;;;;5064758;28;20633;-57
2022/04/08 09:37:20;;;;;;;6.83;3.37;;;;;;;;;;5069050;28;20263;-58
2022/04/08 09:40:03;;;;;;;4.73;2.90;;;;;;;;;;5068238;28;20212;-58
2022/04/08 09:42:45;;;;;;;5.53;3.20;;;;;;;;;;5069264;28;20184;-56
2022/04/08 09:45:12;;;;;;;3.23;2.50;;;;;;;;;;5051211;28;20229;-58
2022/04/08 09:47:38;;;;;;;3.20;2.90;;;;;;;;;;5087055;28;20263;-57
2022/04/08 09:50:10;;;;;;;3.73;2.60;;;;;;;;;;5074553;28;20183;-57
2022/04/08 09:52:39;;;;;;;6.83;3.37;;;;;;;;;;5053011;28;20184;-57
2022/04/08 09:55:07;;;;;;;4.57;2.80;;;;;;;;;;5068283;28;20215;-58
2022/04/08 09:57:36;;;;;;;5.57;2.77;;;;;;;;;;5068871;28;20200;-58
2022/04/08 10:00:03;;;;;;;3.90;3.07;;;;;;;;;;5068487;28;20279;-57
2022/04/08 10:02:29;;;;;;;5.17;2.97;;;;;;;;;;5068427;28;20237;-57
2022/04/08 10:04:56;;;;;;;6.87;3.47;;;;;;;;;;5050806;28;20632;-58
2022/04/08 10:07:22;;;;;;;3.70;2.70;;;;;;;;;;5072694;28;20172;-58
2022/04/08 10:10:11;;;;;;;6.00;2.97;;;;;;;;;;5071415;28;20823;-57
2022/04/08 10:12:56;;;;;;;3.10;2.40;;;;;;;;;;5025283;28;20303;-58
2022/04/08 10:15:37;;;;;;;2.97;2.60;;;;;;;;;;5058799;28;20212;-58
2022/04/08 10:18:04;;;;;;;4.53;2.87;;;;;;;;;;5049710;28;20707;-57
2022/04/08 10:20:32;;;;;;;3.43;3.13;;;;;;;;;;5072091;28;20211;-58
2022/04/08 10:23:04;;;;;;;2.83;2.60;;;;;;;;;;5072216;28;20209;-57
2022/04/08 10:25:35;;;;;;;4.13;2.60;;;;;;;;;;5048266;28;20337;-57
2022/04/08 10:28:02;;;;;;;3.40;2.73;;;;;;;;;;5054608;28;20539;-57
2022/04/08 10:30:28;;;;;;;3.00;2.70;;;;;;;;;;5068818;28;20561;-58
2022/04/08 10:33:01;;;;;;;5.00;2.80;;;;;;;;;;5070229;28;20184;-58
2022/04/08 10:35:27;;;;;;;4.13;2.83;;;;;;;;;;5071729;28;20279;-57
2022/04/08 10:38:03;;;;;;;2.97;2.53;;;;;;;;;;5071732;28;20176;-57
2022/04/08 10:40:34;;;;;;;5.27;2.73;;;;;;;;;;5071221;28;20218;-58
2022/04/08 10:43:01;;;;;;;2.67;2.47;;;;;;;;;;5051591;28;20683;-58
2022/04/08 10:45:29;;;;;;;4.57;2.70;;;;;;;;;;5053728;28;20661;-57
2022/04/08 10:47:56;;;;;;;4.27;2.87;;;;;;;;;;5053064;28;20627;-55
2022/04/08 10:50:40;;;;;;;3.50;2.73;;;;;;;;;;5071268;28;20188;-57
2022/04/08 10:53:10;;;;;;;5.50;3.20;;;;;;;;;;5062018;28;20640;-56
2022/04/08 10:55:49;;;;;;;6.83;3.70;;;;;;;;;;5064795;28;20191;-58
2022/04/08 10:58:29;;;;;;;4.43;3.57;;;;;;;;;;5058262;28;20208;-56
2022/04/08 11:00:55;;;;;;;4.40;3.73;;;;;;;;;;5053597;28;20255;-55
2022/04/08 11:03:26;;;;;;;5.77;3.30;;;;;;;;;;5050757;28;20276;-55
2022/04/08 11:05:52;;;;;;;4.50;4.00;;;;;;;;;;5058166;28;20176;-56
2022/04/08 11:08:18;;;;;;;4.67;2.87;;;;;;;;;;5070297;28;20219;-58
2022/04/08 11:10:45;;;;;;;3.13;2.83;;;;;;;;;;5054005;28;20212;-57
2022/04/08 11:13:14;;;;;;;4.37;2.37;;;;;;;;;;5051436;28;20232;-57
2022/04/08 11:15:44;;;;;;;5.13;3.03;;;;;;;;;;5048961;28;20330;-56
2022/04/08 11:18:11;;;;;;;5.00;2.60;;;;;;;;;;5069629;28;20270;-57
2022/04/08 11:20:37;;;;;;;3.50;2.67;;;;;;;;;;5075147;28;20249;-57
2022/04/08 11:23:03;;;;;;;3.03;2.10;;;;;;;;;;5032293;28;20185;-57
2022/04/08 11:25:30;;;;;;;6.97;2.80;;;;;;;;;;5050133;28;20204;-58
2022/04/08 11:27:59;;;;;;;3.30;2.83;;;;;;;;;;5070870;28;20557;-57
2022/04/08 11:30:26;;;;;;;11.53;3.47;;;;;;;;;;5065301;28;20192;-57
2022/04/08 11:32:53;;;;;;;4.37;2.60;;;;;;;;;;5062670;28;20596;-58
2022/04/08 11:35:19;;;;;;;5.50;2.40;;;;;;;;;;5048619;28;20271;-59
2022/04/08 11:37:45;;;;;;;2.40;2.20;;;;;;;;;;5067611;28;20285;-57
2022/04/08 11:40:17;;;;;;;5.50;2.60;;;;;;;;;;5052250;28;20236;-57
2022/04/08 11:42:44;;;;;;;4.63;2.60;;;;;;;;;;5059492;28;20234;-58
2022/04/08 11:45:11;;;;;;;2.93;2.60;;;;;;;;;;5068898;28;20195;-57
2022/04/08 11:47:40;;;;;;;4.83;2.47;;;;;;;;;;5067164;28;20188;-58
2022/04/08 11:50:08;;;;;;;3.27;2.60;;;;;;;;;;5050018;28;20262;-55
2022/04/08 11:52:36;;;;;;;2.43;2.23;;;;;;;;;;5069984;28;20640;-58
2022/04/08 11:55:03;;;;;;;2.50;2.30;;;;;;;;;;5072446;28;20548;-58
2022/04/08 11:57:30;;;;;;;4.83;2.53;;;;;;;;;;5031555;28;20240;-58
2022/04/08 11:59:57;;;;;;;7.17;2.30;;;;;;;;;;5078600;28;20245;-56
2022/04/08 12:02:23;;;;;;;3.30;2.73;;;;;;;;;;5070993;28;20176;-57
2022/04/08 12:04:53;;;;;;;3.30;2.70;;;;;;;;;;5057557;28;20431;-58
2022/04/08 12:07:23;;;;;;;3.67;2.50;;;;;;;;;;5061835;28;20186;-58
2022/04/08 12:09:50;;;;;;;2.77;2.20;;;;;;;;;;5062392;28;20238;-57
2022/04/08 12:12:22;;;;;;;2.87;2.40;;;;;;;;;;5051092;28;20219;-58
2022/04/08 12:14:48;;;;;;;4.93;2.80;;;;;;;;;;5027638;28;20547;-58
2022/04/08 12:17:15;;;;;;;3.67;2.30;;;;;;;;;;5050156;28;20575;-58
2022/04/08 12:19:42;;;;;;;4.33;2.40;;;;;;;;;;5044621;28;20327;-58
2022/04/08 12:22:16;;;;;;;3.17;2.87;;;;;;;;;;5037154;28;20179;-58
2022/04/08 12:24:43;;;;;;;3.70;2.43;;;;;;;;;;5055162;28;20185;-57
2022/04/08 12:27:13;;;;;;;3.10;2.10;;;;;;;;;;5058869;28;20184;-58
2022/04/08 12:29:39;;;;;;;4.67;2.20;;;;;;;;;;5062011;28;20187;-57
2022/04/08 12:32:12;;;;;;;3.10;2.53;;;;;;;;;;5067886;28;20566;-58
2022/04/08 12:34:39;;;;;;;3.70;2.17;;;;;;;;;;5050180;28;20184;-58
2022/04/08 12:37:05;;;;;;;3.20;2.27;;;;;;;;;;5074658;28;20704;-57
2022/04/08 12:39:31;;;;;;;3.80;2.10;;;;;;;;;;5048859;28;20198;-57
2022/04/08 12:42:01;;;;;;;2.30;2.10;;;;;;;;;;5074951;28;20270;-57
2022/04/08 12:44:28;;;;;;;3.60;2.40;;;;;;;;;;5077253;28;20264;-56
2022/04/08 12:46:56;;;;;;;2.63;2.20;;;;;;;;;;5048444;28;20176;-58
2022/04/08 12:49:23;;;;;;;2.73;2.53;;;;;;;;;;5042182;28;20223;-56
2022/04/08 12:51:50;;;;;;;2.90;2.43;;;;;;;;;;5043765;28;20180;-56
2022/04/08 12:54:16;;;;;;;5.27;2.60;;;;;;;;;;5052541;28;20180;-56
2022/04/08 12:56:42;;;;;;;3.47;2.20;;;;;;;;;;5056446;28;20776;-56
2022/04/08 12:59:09;;;;;;;2.50;2.30;;;;;;;;;;5064884;28;20196;-58
2022/04/08 13:01:36;;;;;;;3.43;3.13;;;;;;;;;;5050253;28;20593;-56
2022/04/08 13:04:02;;;;;;;3.47;2.30;;;;;;;;;;5039113;28;20556;-58
2022/04/08 13:06:30;;;;;;;2.83;2.57;;;;;;;;;;5067043;28;20182;-58
2022/04/08 13:08:56;;;;;;;2.97;2.53;;;;;;;;;;5068845;28;20180;-58
2022/04/08 13:11:23;;;;;;;2.50;2.10;;;;;;;;;;5065823;28;20668;-58
2022/04/08 13:13:49;;;;;;;2.90;2.70;;;;;;;;;;5073282;28;20238;-59
2022/04/08 13:16:15;;;;;;;3.07;2.77;;;;;;;;;;5084433;28;20188;-57
2022/04/08 13:18:41;;;;;;;2.93;2.63;;;;;;;;;;5057516;28;20232;-58
2022/04/08 13:21:08;;;;;;;5.30;2.27;;;;;;;;;;5068703;28;20239;-59
2022/04/08 13:23:35;;;;;;;3.57;2.60;;;;;;;;;;5049745;28;20627;-57
2022/04/08 13:26:04;;;;;;;4.30;2.50;;;;;;;;;;5066699;28;20647;-58
2022/04/08 13:28:30;;;;;;;3.53;2.53;;;;;;;;;;5068499;28;20188;-59
2022/04/08 13:30:57;;;;;;;3.87;2.80;;;;;;;;;;5067144;28;20187;-58
2022/04/08 13:33:23;;;;;;;2.73;2.40;;;;;;;;;;5059187;28;20194;-55
2022/04/08 13:35:53;;;;;;;3.47;2.73;;;;;;;;;;5062732;28;20183;-59
2022/04/08 13:38:21;;;;;;;3.13;2.67;;;;;;;;;;5067777;28;20189;-58
2022/04/08 13:40:47;;;;;;;4.50;2.57;;;;;;;;;;5070454;28;20231;-58
2022/04/08 13:43:13;;;;;;;2.90;2.60;;;;;;;;;;5067480;28;20180;-57
2022/04/08 13:45:39;;;;;;;2.77;2.47;;;;;;;;;;5070536;28;20259;-59
2022/04/08 13:48:06;;;;;;;4.10;2.80;;;;;;;;;;5067093;28;20264;-58
2022/04/08 13:50:32;;;;;;;2.20;2.00;;;;;;;;;;5063887;28;20242;-59
2022/04/08 13:52:59;;;;;;;3.70;2.30;;;;;;;;;;5061898;28;20180;-55
2022/04/08 13:55:25;;;;;;;3.00;2.40;;;;;;;;;;5050009;28;20176;-58
2022/04/08 13:57:51;;;;;;;2.73;2.47;;;;;;;;;;5072529;28;20204;-58
2022/04/08 14:00:17;;;;;;;2.73;2.23;;;;;;;;;;5061326;28;20200;-58
2022/04/08 14:02:44;;;;;;;4.33;2.57;;;;;;;;;;5044544;28;20208;-56
2022/04/08 14:05:11;;;;;;;2.20;2.00;;;;;;;;;;5053486;28;20589;-59
2022/04/08 14:07:37;;;;;;;2.67;2.10;;;;;;;;;;5030870;28;20655;-58
2022/04/08 14:10:04;;;;;;;2.07;1.87;;;;;;;;;;5063438;28;20660;-59
2022/04/08 14:12:30;;;;;;;3.23;2.10;;;;;;;;;;5065351;28;20219;-58
2022/04/08 14:14:57;;;;;;;3.30;2.20;;;;;;;;;;5073394;28;20705;-58
2022/04/08 14:17:23;;;;;;;2.30;2.00;;;;;;;;;;5054534;28;20176;-58
2022/04/08 14:19:50;;;;;;;3.23;1.97;;;;;;;;;;5045913;28;20208;-58
2022/04/08 14:22:16;;;;;;;2.60;2.40;;;;;;;;;;5058922;28;20184;-57
2022/04/08 14:24:42;;;;;;;3.20;1.90;;;;;;;;;;5057097;28;20187;-58
2022/04/08 14:27:08;;;;;;;7.27;2.10;;;;;;;;;;5073584;28;20180;-59
2022/04/08 14:29:35;;;;;;;6.53;1.90;;;;;;;;;;5067709;28;20667;-59
2022/04/08 14:32:01;;;;;;;2.10;1.90;;;;;;;;;;5032699;28;20188;-58
2022/04/08 14:34:27;;;;;;;1.70;1.60;;;;;;;;;;5064029;28;20237;-58
2022/04/08 14:36:54;;;;;;;1.57;1.47;;;;;;;;;;5065483;28;20264;-56
2022/04/08 14:39:20;;;;;;;5.47;1.80;;;;;;;;;;5068140;28;20276;-58
2022/04/08 14:41:46;;;;;;;4.97;2.37;;;;;;;;;;5043274;28;20207;-57
2022/04/08 14:44:12;;;;;;;2.77;1.53;;;;;;;;;;5054846;28;20267;-58